YPEA

RAAF Base Pearce Airport

Bullsbrook, Australia
TAF YPEA 210338Z 2106/2124 23015KT 9999 -SHRA BKN025 FM211200 20008KT 9999 -SHRA SCT030 INTER 2106/2108 23018G28KT 3000 SHRA BKN010 INTER 2108/2112 4000 SHRA SCT015
Issued Valid From Valid To
Aug-21 @ 03:38 UTC
(14 hours ago)
Aug-21 @ 06:00 UTC
(12 hours ago)
Aug-22 @ 00:00 UTC
(in 6 hours)
Expired Click to View Aug-21 @ 06:00 to Aug-21 @ 12:00
TAF YPEA 210338Z 2106/2124 23015KT 9999 -SHRA BKN025
Wind Visibility Clouds Conditions
230° at 15 knots 10,000+ meters
  • Broken at 2,500' AGL
  • Light Rain
Expired Click to View Aug-21 @ 06:00 to Aug-21 @ 08:00
INTER 2106/2108 23018G28KT 3000 SHRA BKN010
Wind Visibility Clouds Conditions
230° at 18 knots
 Gusting to 28 knots
2,993 meters
  • Broken at 1,000' AGL
  • Rain
Expired Click to View Aug-21 @ 08:00 to Aug-21 @ 12:00
INTER 2108/2112 4000 SHRA SCT015
Visibility Clouds Conditions
4,007 meters
  • Scattered at 1,500' AGL
  • Rain
From Aug-21 @ 12:00 to Aug-22 @ 00:00
FM211200 20008KT 9999 -SHRA SCT030
Wind Visibility Clouds Conditions
200° at 8 knots 10,000+ meters
  • Scattered at 3,000' AGL
  • Light Rain
TAF YPEA 210338Z 2106/2124 23015KT 9999 -SHRA BKN025 FM211200 20008KT 9999 -SHRA SCT030 INTER 2106/2108 23018G28KT 3000 SHRA BKN010 INTER 2108/2112 4000 SHRA SCT015
Issued Aug-21 @ 03:38 UTC
(14 hours ago)
Valid From Aug-21 @ 06:00 UTC
(12 hours ago)
Valid To Aug-22 @ 00:00 UTC
(in 6 hours)
Aug-21 @ 06:00 - Aug-21 @ 12:00
Wind Visibility
230° at 15 knots 10,000+ meters
Clouds
  • Broken at 2,500' AGL
Conditions
  • Light Rain
Aug-21 @ 06:00 - Aug-21 @ 08:00
Wind Visibility
230° at 18 knots
 Gusting to 28 knots
2,993 meters
Clouds
  • Broken at 1,000' AGL
Conditions
  • Rain
Aug-21 @ 08:00 - Aug-21 @ 12:00
Clouds
  • Scattered at 1,500' AGL
Conditions
  • Rain
From Aug-21 @ 12:00 - Aug-22 @ 00:00
Wind Visibility
200° at 8 knots 10,000+ meters
Clouds
  • Scattered at 3,000' AGL
Conditions
  • Light Rain